sensor_id;sensor_type;location;lat;lon;timestamp;noise_LAeq;noise_LA_min;noise_LA_max;noise_LA01;noise_LA95
72805;Laerm;60920;48.748;19.142;2023-04-25T00:01:35;45.95;43.10;48.79;;
72805;Laerm;60920;48.748;19.142;2023-04-25T00:04:01;45.99;42.85;50.41;;
72805;Laerm;60920;48.748;19.142;2023-04-25T00:06:27;45.46;42.74;48.64;;
72805;Laerm;60920;48.748;19.142;2023-04-25T00:08:53;46.14;43.01;48.85;;
72805;Laerm;60920;48.748;19.142;2023-04-25T00:11:18;45.97;43.04;49.92;;
72805;Laerm;60920;48.748;19.142;2023-04-25T00:13:44;46.18;42.95;49.91;;
72805;Laerm;60920;48.748;19.142;2023-04-25T00:16:11;46.71;43.60;50.22;;
72805;Laerm;60920;48.748;19.142;2023-04-25T00:18:39;47.02;43.34;50.39;;
72805;Laerm;60920;48.748;19.142;2023-04-25T00:21:04;47.84;43.42;52.05;;
72805;Laerm;60920;48.748;19.142;2023-04-25T00:23:31;47.07;43.33;50.42;;
72805;Laerm;60920;48.748;19.142;2023-04-25T00:25:56;46.53;42.90;50.81;;
72805;Laerm;60920;48.748;19.142;2023-04-25T00:28:21;46.87;42.58;49.97;;
72805;Laerm;60920;48.748;19.142;2023-04-25T00:30:47;47.10;44.24;49.86;;
72805;Laerm;60920;48.748;19.142;2023-04-25T00:33:12;47.29;43.47;51.31;;
72805;Laerm;60920;48.748;19.142;2023-04-25T00:35:38;46.88;43.43;49.57;;
72805;Laerm;60920;48.748;19.142;2023-04-25T00:38:03;46.17;43.02;49.93;;
72805;Laerm;60920;48.748;19.142;2023-04-25T00:40:28;46.10;43.28;50.04;;
72805;Laerm;60920;48.748;19.142;2023-04-25T00:42:54;46.38;43.92;49.61;;
72805;Laerm;60920;48.748;19.142;2023-04-25T00:45:20;46.09;42.56;49.02;;
72805;Laerm;60920;48.748;19.142;2023-04-25T00:47:45;46.08;43.09;49.06;;
72805;Laerm;60920;48.748;19.142;2023-04-25T00:50:12;46.15;43.38;49.14;;
72805;Laerm;60920;48.748;19.142;2023-04-25T00:52:38;46.25;43.71;50.07;;
72805;Laerm;60920;48.748;19.142;2023-04-25T00:55:05;46.32;43.75;49.01;;
72805;Laerm;60920;48.748;19.142;2023-04-25T00:57:31;46.83;43.58;49.58;;
72805;Laerm;60920;48.748;19.142;2023-04-25T00:59:57;46.86;43.82;49.60;;
72805;Laerm;60920;48.748;19.142;2023-04-25T01:02:23;45.78;42.89;49.40;;
72805;Laerm;60920;48.748;19.142;2023-04-25T01:04:48;45.40;42.67;48.49;;
72805;Laerm;60920;48.748;19.142;2023-04-25T01:07:14;46.03;42.90;49.22;;
72805;Laerm;60920;48.748;19.142;2023-04-25T01:09:40;46.73;43.98;50.94;;
72805;Laerm;60920;48.748;19.142;2023-04-25T01:12:05;46.67;43.80;50.05;;
72805;Laerm;60920;48.748;19.142;2023-04-25T01:14:31;46.34;43.38;49.34;;
72805;Laerm;60920;48.748;19.142;2023-04-25T01:16:56;47.05;43.63;52.29;;
72805;Laerm;60920;48.748;19.142;2023-04-25T01:19:22;45.60;42.75;51.60;;
72805;Laerm;60920;48.748;19.142;2023-04-25T01:21:48;45.65;42.75;49.12;;
72805;Laerm;60920;48.748;19.142;2023-04-25T01:24:14;46.10;43.31;49.33;;
72805;Laerm;60920;48.748;19.142;2023-04-25T01:26:39;45.77;43.15;48.29;;
72805;Laerm;60920;48.748;19.142;2023-04-25T01:29:05;45.70;42.79;48.73;;
72805;Laerm;60920;48.748;19.142;2023-04-25T01:31:31;45.79;43.42;48.29;;
72805;Laerm;60920;48.748;19.142;2023-04-25T01:33:57;46.13;43.19;49.18;;
72805;Laerm;60920;48.748;19.142;2023-04-25T01:36:22;46.30;43.27;49.47;;
72805;Laerm;60920;48.748;19.142;2023-04-25T01:38:48;46.17;43.31;49.55;;
72805;Laerm;60920;48.748;19.142;2023-04-25T01:41:14;46.14;43.32;49.37;;
72805;Laerm;60920;48.748;19.142;2023-04-25T01:43:39;46.32;43.67;49.60;;
72805;Laerm;60920;48.748;19.142;2023-04-25T01:46:05;46.13;43.10;49.05;;
72805;Laerm;60920;48.748;19.142;2023-04-25T01:48:30;45.96;43.11;48.51;;
72805;Laerm;60920;48.748;19.142;2023-04-25T01:50:55;46.03;43.31;49.39;;
72805;Laerm;60920;48.748;19.142;2023-04-25T01:53:21;45.60;42.83;48.35;;
72805;Laerm;60920;48.748;19.142;2023-04-25T01:55:47;45.59;42.73;48.22;;
72805;Laerm;60920;48.748;19.142;2023-04-25T01:58:13;45.65;42.23;48.52;;
72805;Laerm;60920;48.748;19.142;2023-04-25T02:00:38;45.78;42.86;48.90;;
72805;Laerm;60920;48.748;19.142;2023-04-25T02:03:04;45.60;42.79;49.01;;
72805;Laerm;60920;48.748;19.142;2023-04-25T02:05:33;45.91;42.93;48.92;;
72805;Laerm;60920;48.748;19.142;2023-04-25T02:07:59;45.61;43.29;48.74;;
72805;Laerm;60920;48.748;19.142;2023-04-25T02:10:24;46.21;43.78;49.16;;
72805;Laerm;60920;48.748;19.142;2023-04-25T02:12:49;45.46;42.52;49.02;;
72805;Laerm;60920;48.748;19.142;2023-04-25T02:15:15;45.57;42.95;48.49;;
72805;Laerm;60920;48.748;19.142;2023-04-25T02:17:40;45.61;42.76;49.30;;
72805;Laerm;60920;48.748;19.142;2023-04-25T02:20:06;45.53;42.64;48.23;;
72805;Laerm;60920;48.748;19.142;2023-04-25T02:22:31;45.44;42.51;48.85;;
72805;Laerm;60920;48.748;19.142;2023-04-25T02:24:56;45.75;43.45;48.07;;
72805;Laerm;60920;48.748;19.142;2023-04-25T02:27:22;45.23;42.68;48.10;;
72805;Laerm;60920;48.748;19.142;2023-04-25T02:29:48;45.03;42.28;47.57;;
72805;Laerm;60920;48.748;19.142;2023-04-25T02:32:13;45.41;42.76;48.13;;
72805;Laerm;60920;48.748;19.142;2023-04-25T02:34:39;45.69;43.38;49.31;;
72805;Laerm;60920;48.748;19.142;2023-04-25T02:37:04;45.85;42.86;48.87;;
72805;Laerm;60920;48.748;19.142;2023-04-25T02:39:29;45.29;42.25;48.70;;
72805;Laerm;60920;48.748;19.142;2023-04-25T02:41:55;45.41;42.47;48.01;;
72805;Laerm;60920;48.748;19.142;2023-04-25T02:44:20;45.46;42.96;47.68;;
72805;Laerm;60920;48.748;19.142;2023-04-25T02:46:45;45.96;43.22;48.50;;
72805;Laerm;60920;48.748;19.142;2023-04-25T02:49:11;45.60;43.31;48.20;;
72805;Laerm;60920;48.748;19.142;2023-04-25T02:51:36;46.14;43.34;49.12;;
72805;Laerm;60920;48.748;19.142;2023-04-25T02:54:02;46.26;43.30;49.62;;
72805;Laerm;60920;48.748;19.142;2023-04-25T02:56:27;45.55;43.01;48.64;;
72805;Laerm;60920;48.748;19.142;2023-04-25T02:58:52;45.63;42.84;49.47;;
72805;Laerm;60920;48.748;19.142;2023-04-25T03:01:18;44.99;41.73;49.16;;
72805;Laerm;60920;48.748;19.142;2023-04-25T03:03:43;45.49;42.68;48.76;;
72805;Laerm;60920;48.748;19.142;2023-04-25T03:06:08;46.22;43.59;49.68;;
72805;Laerm;60920;48.748;19.142;2023-04-25T03:08:33;45.88;43.15;49.66;;
72805;Laerm;60920;48.748;19.142;2023-04-25T03:10:59;45.49;42.21;48.82;;
72805;Laerm;60920;48.748;19.142;2023-04-25T03:13:24;45.34;42.41;48.32;;
72805;Laerm;60920;48.748;19.142;2023-04-25T03:15:50;45.32;41.34;48.20;;
72805;Laerm;60920;48.748;19.142;2023-04-25T03:18:16;44.67;41.47;48.50;;
72805;Laerm;60920;48.748;19.142;2023-04-25T03:20:41;45.41;42.24;49.53;;
72805;Laerm;60920;48.748;19.142;2023-04-25T03:23:07;45.05;41.13;48.73;;
72805;Laerm;60920;48.748;19.142;2023-04-25T03:25:32;44.50;41.79;47.47;;
72805;Laerm;60920;48.748;19.142;2023-04-25T03:27:57;44.78;42.22;47.44;;
72805;Laerm;60920;48.748;19.142;2023-04-25T03:30:23;45.05;42.70;47.91;;
72805;Laerm;60920;48.748;19.142;2023-04-25T03:32:48;44.65;41.36;47.21;;
72805;Laerm;60920;48.748;19.142;2023-04-25T03:35:13;45.07;42.27;48.26;;
72805;Laerm;60920;48.748;19.142;2023-04-25T03:37:39;44.72;41.30;47.31;;
72805;Laerm;60920;48.748;19.142;2023-04-25T03:40:05;45.07;41.96;48.84;;
72805;Laerm;60920;48.748;19.142;2023-04-25T03:42:31;45.01;42.40;47.61;;
72805;Laerm;60920;48.748;19.142;2023-04-25T03:44:56;46.00;42.67;50.08;;
72805;Laerm;60920;48.748;19.142;2023-04-25T03:47:21;45.87;42.84;49.94;;
72805;Laerm;60920;48.748;19.142;2023-04-25T03:49:47;44.98;42.17;47.85;;
72805;Laerm;60920;48.748;19.142;2023-04-25T03:52:14;44.67;42.21;47.43;;
72805;Laerm;60920;48.748;19.142;2023-04-25T03:54:39;45.07;42.33;47.88;;
72805;Laerm;60920;48.748;19.142;2023-04-25T03:57:04;44.99;42.54;47.71;;
72805;Laerm;60920;48.748;19.142;2023-04-25T03:59:30;44.81;41.50;47.58;;
72805;Laerm;60920;48.748;19.142;2023-04-25T04:01:55;44.85;42.35;47.72;;
72805;Laerm;60920;48.748;19.142;2023-04-25T04:04:20;44.97;42.32;47.69;;
72805;Laerm;60920;48.748;19.142;2023-04-25T04:06:46;45.27;42.51;48.05;;
72805;Laerm;60920;48.748;19.142;2023-04-25T04:09:11;45.24;42.35;48.12;;
72805;Laerm;60920;48.748;19.142;2023-04-25T04:11:38;45.01;41.82;48.27;;
72805;Laerm;60920;48.748;19.142;2023-04-25T04:14:04;45.26;42.36;48.24;;
72805;Laerm;60920;48.748;19.142;2023-04-25T04:16:30;45.56;42.64;47.89;;
72805;Laerm;60920;48.748;19.142;2023-04-25T04:18:55;44.51;41.74;46.97;;
72805;Laerm;60920;48.748;19.142;2023-04-25T04:21:21;44.88;42.09;48.04;;
72805;Laerm;60920;48.748;19.142;2023-04-25T04:23:46;45.30;42.88;48.27;;
72805;Laerm;60920;48.748;19.142;2023-04-25T04:26:13;45.49;41.94;48.49;;
72805;Laerm;60920;48.748;19.142;2023-04-25T04:28:40;45.50;42.38;48.39;;
72805;Laerm;60920;48.748;19.142;2023-04-25T04:31:05;45.31;42.43;49.59;;
72805;Laerm;60920;48.748;19.142;2023-04-25T04:33:32;45.83;43.19;48.61;;
72805;Laerm;60920;48.748;19.142;2023-04-25T04:35:57;45.80;43.34;48.52;;
72805;Laerm;60920;48.748;19.142;2023-04-25T04:38:23;46.02;42.63;48.55;;
72805;Laerm;60920;48.748;19.142;2023-04-25T04:40:49;45.73;42.98;48.26;;
72805;Laerm;60920;48.748;19.142;2023-04-25T04:43:15;45.68;42.62;47.93;;
72805;Laerm;60920;48.748;19.142;2023-04-25T04:45:42;45.04;41.98;47.50;;
72805;Laerm;60920;48.748;19.142;2023-04-25T04:48:08;44.83;41.81;48.38;;
72805;Laerm;60920;48.748;19.142;2023-04-25T04:50:33;44.89;42.05;47.46;;
72805;Laerm;60920;48.748;19.142;2023-04-25T04:52:59;45.07;42.55;47.84;;
72805;Laerm;60920;48.748;19.142;2023-04-25T04:55:25;44.75;41.90;48.01;;
72805;Laerm;60920;48.748;19.142;2023-04-25T04:57:50;45.19;42.42;48.46;;
72805;Laerm;60920;48.748;19.142;2023-04-25T05:00:16;45.59;42.63;48.49;;
72805;Laerm;60920;48.748;19.142;2023-04-25T05:02:41;45.21;42.24;48.24;;
72805;Laerm;60920;48.748;19.142;2023-04-25T05:05:06;45.18;42.10;47.84;;
72805;Laerm;60920;48.748;19.142;2023-04-25T05:07:33;45.52;42.82;48.66;;
72805;Laerm;60920;48.748;19.142;2023-04-25T05:09:58;45.75;43.15;48.91;;
72805;Laerm;60920;48.748;19.142;2023-04-25T05:12:23;45.21;42.25;47.78;;
72805;Laerm;60920;48.748;19.142;2023-04-25T05:14:48;45.09;41.89;48.17;;
72805;Laerm;60920;48.748;19.142;2023-04-25T05:17:14;45.60;42.56;48.06;;
72805;Laerm;60920;48.748;19.142;2023-04-25T05:19:40;45.55;42.75;49.33;;
72805;Laerm;60920;48.748;19.142;2023-04-25T05:22:05;45.94;42.90;48.51;;
72805;Laerm;60920;48.748;19.142;2023-04-25T05:24:30;46.05;43.16;49.29;;
72805;Laerm;60920;48.748;19.142;2023-04-25T05:26:56;46.17;43.58;49.42;;
72805;Laerm;60920;48.748;19.142;2023-04-25T05:29:21;46.21;42.60;49.46;;
72805;Laerm;60920;48.748;19.142;2023-04-25T05:31:46;45.83;42.51;49.23;;
72805;Laerm;60920;48.748;19.142;2023-04-25T05:34:13;46.75;43.05;50.71;;
72805;Laerm;60920;48.748;19.142;2023-04-25T05:36:38;45.90;41.96;49.79;;
72805;Laerm;60920;48.748;19.142;2023-04-25T05:39:03;45.25;42.25;48.70;;
72805;Laerm;60920;48.748;19.142;2023-04-25T05:41:29;45.06;42.28;48.32;;
72805;Laerm;60920;48.748;19.142;2023-04-25T05:43:55;45.83;42.47;48.59;;
72805;Laerm;60920;48.748;19.142;2023-04-25T05:46:20;45.08;40.94;49.01;;
72805;Laerm;60920;48.748;19.142;2023-04-25T05:48:45;45.23;42.19;48.61;;
72805;Laerm;60920;48.748;19.142;2023-04-25T05:51:10;46.61;44.03;49.40;;
72805;Laerm;60920;48.748;19.142;2023-04-25T05:53:36;46.74;43.81;49.19;;
72805;Laerm;60920;48.748;19.142;2023-04-25T05:56:01;46.22;43.16;48.56;;
72805;Laerm;60920;48.748;19.142;2023-04-25T05:58:27;45.99;42.88;49.39;;
72805;Laerm;60920;48.748;19.142;2023-04-25T06:00:52;45.54;42.43;48.06;;
72805;Laerm;60920;48.748;19.142;2023-04-25T06:03:17;45.33;42.06;47.96;;
72805;Laerm;60920;48.748;19.142;2023-04-25T06:05:43;44.72;40.98;47.61;;
72805;Laerm;60920;48.748;19.142;2023-04-25T06:08:08;44.96;41.40;48.52;;
72805;Laerm;60920;48.748;19.142;2023-04-25T06:10:34;45.25;40.95;48.60;;
72805;Laerm;60920;48.748;19.142;2023-04-25T06:12:59;44.27;41.37;47.45;;
72805;Laerm;60920;48.748;19.142;2023-04-25T06:15:25;44.52;41.93;47.13;;
72805;Laerm;60920;48.748;19.142;2023-04-25T06:17:50;44.02;40.09;48.04;;
72805;Laerm;60920;48.748;19.142;2023-04-25T06:20:15;43.58;40.49;46.41;;
72805;Laerm;60920;48.748;19.142;2023-04-25T06:22:41;43.55;41.06;46.19;;
72805;Laerm;60920;48.748;19.142;2023-04-25T06:25:06;43.72;40.79;45.94;;
72805;Laerm;60920;48.748;19.142;2023-04-25T06:27:32;43.51;40.41;46.03;;
72805;Laerm;60920;48.748;19.142;2023-04-25T06:29:57;43.70;40.92;46.17;;
72805;Laerm;60920;48.748;19.142;2023-04-25T06:32:23;43.81;41.31;46.24;;
72805;Laerm;60920;48.748;19.142;2023-04-25T06:34:48;43.88;40.38;46.31;;
72805;Laerm;60920;48.748;19.142;2023-04-25T06:37:14;43.77;41.06;46.34;;
72805;Laerm;60920;48.748;19.142;2023-04-25T06:39:39;43.68;40.97;46.22;;
72805;Laerm;60920;48.748;19.142;2023-04-25T06:42:05;43.56;40.79;46.40;;
72805;Laerm;60920;48.748;19.142;2023-04-25T06:44:30;43.13;40.64;45.97;;
72805;Laerm;60920;48.748;19.142;2023-04-25T06:46:55;43.02;40.31;45.89;;
72805;Laerm;60920;48.748;19.142;2023-04-25T06:49:21;43.49;41.01;45.91;;
72805;Laerm;60920;48.748;19.142;2023-04-25T06:51:46;43.27;39.79;45.95;;
72805;Laerm;60920;48.748;19.142;2023-04-25T06:54:11;42.66;40.12;45.09;;
72805;Laerm;60920;48.748;19.142;2023-04-25T06:56:37;42.93;40.45;45.03;;
72805;Laerm;60920;48.748;19.142;2023-04-25T06:59:02;42.96;40.62;45.22;;
72805;Laerm;60920;48.748;19.142;2023-04-25T07:01:27;43.32;40.90;46.74;;
72805;Laerm;60920;48.748;19.142;2023-04-25T07:03:53;44.83;40.30;47.52;;
72805;Laerm;60920;48.748;19.142;2023-04-25T07:06:18;44.14;41.04;47.41;;
72805;Laerm;60920;48.748;19.142;2023-04-25T07:08:43;43.85;40.23;46.92;;
72805;Laerm;60920;48.748;19.142;2023-04-25T07:11:09;43.43;40.39;46.86;;
72805;Laerm;60920;48.748;19.142;2023-04-25T07:13:34;42.23;39.44;45.74;;
72805;Laerm;60920;48.748;19.142;2023-04-25T07:15:59;42.07;39.10;44.99;;
72805;Laerm;60920;48.748;19.142;2023-04-25T07:18:25;41.31;38.78;44.02;;
72805;Laerm;60920;48.748;19.142;2023-04-25T07:20:50;42.36;39.20;46.62;;
72805;Laerm;60920;48.748;19.142;2023-04-25T07:23:16;43.34;39.80;46.72;;
72805;Laerm;60920;48.748;19.142;2023-04-25T07:25:41;43.15;40.84;46.12;;
72805;Laerm;60920;48.748;19.142;2023-04-25T07:28:06;42.30;39.49;46.24;;
72805;Laerm;60920;48.748;19.142;2023-04-25T07:30:32;42.22;39.50;45.77;;
72805;Laerm;60920;48.748;19.142;2023-04-25T07:32:57;42.04;39.76;45.38;;
72805;Laerm;60920;48.748;19.142;2023-04-25T07:35:22;42.44;40.27;45.34;;
72805;Laerm;60920;48.748;19.142;2023-04-25T07:37:48;43.30;40.56;46.53;;
72805;Laerm;60920;48.748;19.142;2023-04-25T07:40:13;41.76;39.24;44.73;;
72805;Laerm;60920;48.748;19.142;2023-04-25T07:42:40;41.47;38.90;44.02;;
72805;Laerm;60920;48.748;19.142;2023-04-25T07:45:06;41.12;38.49;44.43;;
72805;Laerm;60920;48.748;19.142;2023-04-25T07:47:31;41.39;37.92;45.49;;
72805;Laerm;60920;48.748;19.142;2023-04-25T07:49:57;39.28;36.62;43.39;;
72805;Laerm;60920;48.748;19.142;2023-04-25T07:52:23;38.77;36.41;41.49;;
72805;Laerm;60920;48.748;19.142;2023-04-25T07:54:48;38.50;35.65;55.32;;
72805;Laerm;60920;48.748;19.142;2023-04-25T07:57:13;38.52;35.55;45.76;;
72805;Laerm;60920;48.748;19.142;2023-04-25T07:59:39;38.68;35.77;50.90;;
72805;Laerm;60920;48.748;19.142;2023-04-25T08:02:04;38.00;35.65;41.31;;
72805;Laerm;60920;48.748;19.142;2023-04-25T08:04:30;39.15;36.66;43.10;;
72805;Laerm;60920;48.748;19.142;2023-04-25T08:06:55;39.92;37.42;45.30;;
72805;Laerm;60920;48.748;19.142;2023-04-25T08:09:21;40.47;37.75;44.20;;
72805;Laerm;60920;48.748;19.142;2023-04-25T08:11:46;40.93;38.05;44.61;;
72805;Laerm;60920;48.748;19.142;2023-04-25T08:14:12;40.27;37.65;43.49;;
72805;Laerm;60920;48.748;19.142;2023-04-25T08:16:37;39.99;37.62;43.46;;
72805;Laerm;60920;48.748;19.142;2023-04-25T08:19:03;39.14;36.33;42.80;;
72805;Laerm;60920;48.748;19.142;2023-04-25T08:21:28;38.65;36.46;48.26;;
72805;Laerm;60920;48.748;19.142;2023-04-25T08:23:54;38.40;36.22;41.55;;
72805;Laerm;60920;48.748;19.142;2023-04-25T08:26:19;37.65;35.10;40.56;;
72805;Laerm;60920;48.748;19.142;2023-04-25T08:28:45;38.06;35.66;42.79;;
72805;Laerm;60920;48.748;19.142;2023-04-25T08:31:11;37.52;34.86;44.69;;
72805;Laerm;60920;48.748;19.142;2023-04-25T08:33:36;37.80;34.98;43.11;;
72805;Laerm;60920;48.748;19.142;2023-04-25T08:36:01;37.42;34.85;40.78;;
72805;Laerm;60920;48.748;19.142;2023-04-25T08:38:27;37.76;35.21;43.11;;
72805;Laerm;60920;48.748;19.142;2023-04-25T08:40:52;37.58;34.80;41.89;;
72805;Laerm;60920;48.748;19.142;2023-04-25T08:43:19;37.32;34.89;42.06;;
72805;Laerm;60920;48.748;19.142;2023-04-25T08:45:45;37.07;34.93;52.79;;
72805;Laerm;60920;48.748;19.142;2023-04-25T08:48:15;37.88;35.27;41.04;;
72805;Laerm;60920;48.748;19.142;2023-04-25T08:50:45;37.43;35.14;42.33;;
72805;Laerm;60920;48.748;19.142;2023-04-25T08:53:10;38.16;35.57;41.31;;
72805;Laerm;60920;48.748;19.142;2023-04-25T08:55:38;37.77;35.12;40.28;;
72805;Laerm;60920;48.748;19.142;2023-04-25T08:58:06;37.47;35.30;41.31;;
72805;Laerm;60920;48.748;19.142;2023-04-25T09:00:32;38.76;36.11;48.50;;
72805;Laerm;60920;48.748;19.142;2023-04-25T09:02:58;38.07;35.89;40.93;;
72805;Laerm;60920;48.748;19.142;2023-04-25T09:05:23;39.95;36.59;46.22;;
72805;Laerm;60920;48.748;19.142;2023-04-25T09:07:49;39.49;36.96;42.99;;
72805;Laerm;60920;48.748;19.142;2023-04-25T09:10:14;38.83;36.63;42.75;;
72805;Laerm;60920;48.748;19.142;2023-04-25T09:12:40;39.91;37.48;43.53;;
72805;Laerm;60920;48.748;19.142;2023-04-25T09:15:09;40.24;38.04;44.31;;
72805;Laerm;60920;48.748;19.142;2023-04-25T09:17:35;39.30;36.99;42.82;;
72805;Laerm;60920;48.748;19.142;2023-04-25T09:20:14;39.83;37.25;43.17;;
72805;Laerm;60920;48.748;19.142;2023-04-25T09:22:40;40.22;37.53;44.47;;
72805;Laerm;60920;48.748;19.142;2023-04-25T09:25:09;40.07;37.98;43.52;;
72805;Laerm;60920;48.748;19.142;2023-04-25T09:27:35;39.30;36.83;42.59;;
72805;Laerm;60920;48.748;19.142;2023-04-25T09:30:00;38.62;36.62;41.17;;
72805;Laerm;60920;48.748;19.142;2023-04-25T09:32:26;38.79;35.82;41.53;;
72805;Laerm;60920;48.748;19.142;2023-04-25T09:34:52;38.69;36.25;43.87;;
72805;Laerm;60920;48.748;19.142;2023-04-25T09:37:25;38.56;36.28;43.81;;
72805;Laerm;60920;48.748;19.142;2023-04-25T09:39:52;38.56;35.88;42.20;;
72805;Laerm;60920;48.748;19.142;2023-04-25T09:42:17;38.37;35.32;43.69;;
72805;Laerm;60920;48.748;19.142;2023-04-25T09:44:46;37.65;34.69;41.72;;
72805;Laerm;60920;48.748;19.142;2023-04-25T09:47:12;38.19;34.97;43.28;;
72805;Laerm;60920;48.748;19.142;2023-04-25T09:49:39;37.71;34.89;42.04;;
72805;Laerm;60920;48.748;19.142;2023-04-25T09:52:05;37.99;34.18;44.65;;
72805;Laerm;60920;48.748;19.142;2023-04-25T09:54:30;37.85;34.62;43.24;;
72805;Laerm;60920;48.748;19.142;2023-04-25T09:56:56;37.85;34.57;46.94;;
72805;Laerm;60920;48.748;19.142;2023-04-25T09:59:22;38.12;35.23;46.35;;
72805;Laerm;60920;48.748;19.142;2023-04-25T10:01:49;37.57;34.21;43.28;;
72805;Laerm;60920;48.748;19.142;2023-04-25T10:04:22;37.87;34.38;42.48;;
72805;Laerm;60920;48.748;19.142;2023-04-25T10:06:49;37.80;34.38;43.43;;
72805;Laerm;60920;48.748;19.142;2023-04-25T10:09:19;37.27;34.20;45.00;;
72805;Laerm;60920;48.748;19.142;2023-04-25T10:11:45;37.29;34.33;41.95;;
72805;Laerm;60920;48.748;19.142;2023-04-25T10:14:13;39.15;34.56;50.42;;
72805;Laerm;60920;48.748;19.142;2023-04-25T10:16:39;36.78;34.29;40.22;;
72805;Laerm;60920;48.748;19.142;2023-04-25T10:19:05;37.29;34.46;48.42;;
72805;Laerm;60920;48.748;19.142;2023-04-25T10:21:31;38.02;34.46;44.19;;
72805;Laerm;60920;48.748;19.142;2023-04-25T10:23:56;38.03;34.54;42.74;;
72805;Laerm;60920;48.748;19.142;2023-04-25T10:26:23;37.92;35.12;41.28;;
72805;Laerm;60920;48.748;19.142;2023-04-25T10:28:59;37.06;34.66;40.38;;
72805;Laerm;60920;48.748;19.142;2023-04-25T10:31:26;37.41;34.78;47.06;;
72805;Laerm;60920;48.748;19.142;2023-04-25T10:33:52;37.11;34.53;42.35;;
72805;Laerm;60920;48.748;19.142;2023-04-25T10:36:19;37.09;33.57;44.94;;
72805;Laerm;60920;48.748;19.142;2023-04-25T10:38:46;38.28;33.78;45.27;;
72805;Laerm;60920;48.748;19.142;2023-04-25T10:41:12;38.03;34.07;46.59;;
72805;Laerm;60920;48.748;19.142;2023-04-25T10:46:23;37.04;33.64;45.17;;
72805;Laerm;60920;48.748;19.142;2023-04-25T10:48:50;38.19;33.48;43.23;;
72805;Laerm;60920;48.748;19.142;2023-04-25T10:53:44;38.34;34.37;46.94;;
72805;Laerm;60920;48.748;19.142;2023-04-25T10:56:11;37.48;33.66;41.44;;
72805;Laerm;60920;48.748;19.142;2023-04-25T10:58:41;38.06;34.06;48.13;;
72805;Laerm;60920;48.748;19.142;2023-04-25T11:01:06;38.64;34.46;44.40;;
72805;Laerm;60920;48.748;19.142;2023-04-25T11:03:32;39.46;36.03;45.71;;
72805;Laerm;60920;48.748;19.142;2023-04-25T11:05:57;39.10;34.91;45.40;;
72805;Laerm;60920;48.748;19.142;2023-04-25T11:08:38;37.77;34.26;44.33;;
72805;Laerm;60920;48.748;19.142;2023-04-25T11:11:08;38.07;34.22;43.93;;
72805;Laerm;60920;48.748;19.142;2023-04-25T11:13:34;38.59;34.51;43.97;;
72805;Laerm;60920;48.748;19.142;2023-04-25T11:15:59;41.31;34.71;46.29;;
72805;Laerm;60920;48.748;19.142;2023-04-25T11:18:26;38.45;34.75;43.57;;
72805;Laerm;60920;48.748;19.142;2023-04-25T11:20:51;40.99;36.53;45.15;;
72805;Laerm;60920;48.748;19.142;2023-04-25T11:23:16;41.61;35.07;47.94;;
72805;Laerm;60920;48.748;19.142;2023-04-25T11:25:42;40.84;34.29;46.61;;
72805;Laerm;60920;48.748;19.142;2023-04-25T11:28:07;41.28;35.53;46.09;;
72805;Laerm;60920;48.748;19.142;2023-04-25T11:30:32;41.45;35.00;54.10;;
72805;Laerm;60920;48.748;19.142;2023-04-25T11:32:58;38.55;34.15;43.25;;
72805;Laerm;60920;48.748;19.142;2023-04-25T11:35:23;37.41;33.70;47.32;;
72805;Laerm;60920;48.748;19.142;2023-04-25T11:37:50;38.43;34.02;45.78;;
72805;Laerm;60920;48.748;19.142;2023-04-25T11:40:16;38.28;34.60;46.77;;
72805;Laerm;60920;48.748;19.142;2023-04-25T11:42:45;39.10;34.93;46.79;;
72805;Laerm;60920;48.748;19.142;2023-04-25T11:45:11;38.54;34.80;44.51;;
72805;Laerm;60920;48.748;19.142;2023-04-25T11:47:36;38.74;34.66;44.14;;
72805;Laerm;60920;48.748;19.142;2023-04-25T11:50:02;38.33;34.84;45.18;;
72805;Laerm;60920;48.748;19.142;2023-04-25T11:52:38;39.69;35.24;47.78;;
72805;Laerm;60920;48.748;19.142;2023-04-25T11:55:05;39.66;34.94;49.25;;
72805;Laerm;60920;48.748;19.142;2023-04-25T11:57:32;38.07;34.12;43.49;;
72805;Laerm;60920;48.748;19.142;2023-04-25T12:00:04;38.83;33.85;51.97;;
72805;Laerm;60920;48.748;19.142;2023-04-25T12:02:30;37.79;33.50;44.54;;
72805;Laerm;60920;48.748;19.142;2023-04-25T12:04:59;37.99;34.53;45.72;;
72805;Laerm;60920;48.748;19.142;2023-04-25T12:07:28;39.51;35.83;45.71;;
72805;Laerm;60920;48.748;19.142;2023-04-25T12:09:53;38.82;34.54;45.64;;
72805;Laerm;60920;48.748;19.142;2023-04-25T12:12:19;37.91;34.01;46.43;;
72805;Laerm;60920;48.748;19.142;2023-04-25T12:14:46;37.73;34.23;42.53;;
72805;Laerm;60920;48.748;19.142;2023-04-25T12:17:12;38.08;34.53;43.76;;
72805;Laerm;60920;48.748;19.142;2023-04-25T12:19:38;37.37;33.44;44.13;;
72805;Laerm;60920;48.748;19.142;2023-04-25T12:22:19;37.64;34.51;42.27;;
72805;Laerm;60920;48.748;19.142;2023-04-25T12:24:46;38.05;34.74;45.55;;
72805;Laerm;60920;48.748;19.142;2023-04-25T12:27:13;38.65;34.44;49.58;;
72805;Laerm;60920;48.748;19.142;2023-04-25T12:29:49;38.59;34.39;56.04;;
72805;Laerm;60920;48.748;19.142;2023-04-25T12:32:15;38.68;33.84;50.25;;
72805;Laerm;60920;48.748;19.142;2023-04-25T12:34:40;43.51;34.26;67.50;;
72805;Laerm;60920;48.748;19.142;2023-04-25T12:37:05;46.10;33.77;65.90;;
72805;Laerm;60920;48.748;19.142;2023-04-25T12:39:31;49.62;33.76;85.17;;
72805;Laerm;60920;48.748;19.142;2023-04-25T12:41:56;45.50;34.32;80.01;;
72805;Laerm;60920;48.748;19.142;2023-04-25T12:44:22;41.93;33.48;61.03;;
72805;Laerm;60920;48.748;19.142;2023-04-25T12:46:47;46.87;33.55;80.83;;
72805;Laerm;60920;48.748;19.142;2023-04-25T12:49:13;45.13;34.41;78.82;;
72805;Laerm;60920;48.748;19.142;2023-04-25T12:51:39;48.80;35.08;81.72;;
72805;Laerm;60920;48.748;19.142;2023-04-25T12:54:04;37.52;34.51;41.82;;
72805;Laerm;60920;48.748;19.142;2023-04-25T12:56:31;46.71;33.72;79.88;;
72805;Laerm;60920;48.748;19.142;2023-04-25T12:58:56;43.35;32.86;73.23;;
72805;Laerm;60920;48.748;19.142;2023-04-25T13:01:22;43.30;33.84;68.40;;
72805;Laerm;60920;48.748;19.142;2023-04-25T13:03:48;44.16;33.33;68.07;;
72805;Laerm;60920;48.748;19.142;2023-04-25T13:06:17;42.16;34.35;65.13;;
72805;Laerm;60920;48.748;19.142;2023-04-25T13:08:43;41.79;34.67;63.38;;
72805;Laerm;60920;48.748;19.142;2023-04-25T13:11:08;41.15;34.58;64.45;;
72805;Laerm;60920;48.748;19.142;2023-04-25T13:13:33;41.35;35.00;62.49;;
72805;Laerm;60920;48.748;19.142;2023-04-25T13:16:06;42.47;33.61;66.04;;
72805;Laerm;60920;48.748;19.142;2023-04-25T13:18:32;39.36;35.65;57.30;;
72805;Laerm;60920;48.748;19.142;2023-04-25T13:20:58;39.72;34.68;52.58;;
72805;Laerm;60920;48.748;19.142;2023-04-25T13:23:25;41.00;34.05;71.27;;
72805;Laerm;60920;48.748;19.142;2023-04-25T13:25:51;40.63;34.63;70.40;;
72805;Laerm;60920;48.748;19.142;2023-04-25T13:28:16;43.15;35.41;72.43;;
72805;Laerm;60920;48.748;19.142;2023-04-25T13:30:42;42.66;33.46;72.66;;